sensor_id;sensor_type;location;lat;lon;timestamp;P1;durP1;ratioP1;P2;durP2;ratioP2
26654;SDS011;14278;50.784;4.630;2023-08-21T00:00:16;2.67;;;0.90;;
26654;SDS011;14278;50.784;4.630;2023-08-21T00:02:41;1.50;;;0.82;;
26654;SDS011;14278;50.784;4.630;2023-08-21T00:05:07;1.70;;;1.30;;
26654;SDS011;14278;50.784;4.630;2023-08-21T00:07:34;0.90;;;0.70;;
26654;SDS011;14278;50.784;4.630;2023-08-21T00:10:04;2.55;;;0.95;;
26654;SDS011;14278;50.784;4.630;2023-08-21T00:12:30;3.25;;;1.00;;
26654;SDS011;14278;50.784;4.630;2023-08-21T00:14:57;1.38;;;0.93;;
26654;SDS011;14278;50.784;4.630;2023-08-21T00:17:22;1.05;;;0.88;;
26654;SDS011;14278;50.784;4.630;2023-08-21T00:19:48;0.98;;;0.68;;
26654;SDS011;14278;50.784;4.630;2023-08-21T00:22:14;1.15;;;0.80;;
26654;SDS011;14278;50.784;4.630;2023-08-21T00:24:40;1.35;;;1.00;;
26654;SDS011;14278;50.784;4.630;2023-08-21T00:27:06;4.93;;;1.48;;
26654;SDS011;14278;50.784;4.630;2023-08-21T00:29:32;5.15;;;0.98;;
26654;SDS011;14278;50.784;4.630;2023-08-21T00:31:57;1.60;;;0.90;;
26654;SDS011;14278;50.784;4.630;2023-08-21T00:34:23;1.48;;;0.90;;
26654;SDS011;14278;50.784;4.630;2023-08-21T00:36:49;1.38;;;0.70;;
26654;SDS011;14278;50.784;4.630;2023-08-21T00:39:15;1.63;;;1.38;;
26654;SDS011;14278;50.784;4.630;2023-08-21T00:41:42;1.67;;;0.77;;
26654;SDS011;14278;50.784;4.630;2023-08-21T00:44:07;1.52;;;1.05;;
26654;SDS011;14278;50.784;4.630;2023-08-21T00:46:33;4.50;;;1.20;;
26654;SDS011;14278;50.784;4.630;2023-08-21T00:48:59;1.08;;;0.50;;
26654;SDS011;14278;50.784;4.630;2023-08-21T00:51:25;1.38;;;1.13;;
26654;SDS011;14278;50.784;4.630;2023-08-21T00:53:51;1.48;;;0.90;;
26654;SDS011;14278;50.784;4.630;2023-08-21T00:56:16;1.05;;;0.95;;
26654;SDS011;14278;50.784;4.630;2023-08-21T00:58:42;4.35;;;0.75;;
26654;SDS011;14278;50.784;4.630;2023-08-21T01:01:08;1.17;;;0.70;;
26654;SDS011;14278;50.784;4.630;2023-08-21T01:03:34;0.63;;;0.60;;
26654;SDS011;14278;50.784;4.630;2023-08-21T01:06:00;1.98;;;0.98;;
26654;SDS011;14278;50.784;4.630;2023-08-21T01:16:59;0.73;;;0.68;;
26654;SDS011;14278;50.784;4.630;2023-08-21T01:19:37;0.50;;;0.50;;
26654;SDS011;14278;50.784;4.630;2023-08-21T01:22:06;0.90;;;0.60;;
26654;SDS011;14278;50.784;4.630;2023-08-21T01:24:32;0.70;;;0.70;;
26654;SDS011;14278;50.784;4.630;2023-08-21T01:26:59;1.30;;;0.68;;
26654;SDS011;14278;50.784;4.630;2023-08-21T01:29:25;1.52;;;0.80;;
26654;SDS011;14278;50.784;4.630;2023-08-21T01:34:42;1.25;;;0.90;;
26654;SDS011;14278;50.784;4.630;2023-08-21T01:37:09;4.57;;;0.80;;
26654;SDS011;14278;50.784;4.630;2023-08-21T01:39:36;0.95;;;0.88;;
26654;SDS011;14278;50.784;4.630;2023-08-21T01:42:02;0.50;;;0.50;;
26654;SDS011;14278;50.784;4.630;2023-08-21T01:44:28;0.98;;;0.80;;
26654;SDS011;14278;50.784;4.630;2023-08-21T01:46:54;2.25;;;0.60;;
26654;SDS011;14278;50.784;4.630;2023-08-21T01:49:21;1.73;;;1.13;;
26654;SDS011;14278;50.784;4.630;2023-08-21T01:51:47;1.88;;;1.10;;
26654;SDS011;14278;50.784;4.630;2023-08-21T01:54:13;1.92;;;0.70;;
26654;SDS011;14278;50.784;4.630;2023-08-21T01:56:41;3.28;;;1.08;;
26654;SDS011;14278;50.784;4.630;2023-08-21T01:59:06;2.33;;;1.02;;
26654;SDS011;14278;50.784;4.630;2023-08-21T02:01:32;0.47;;;0.47;;
26654;SDS011;14278;50.784;4.630;2023-08-21T02:03:58;1.67;;;0.65;;
26654;SDS011;14278;50.784;4.630;2023-08-21T02:06:25;0.95;;;0.80;;
26654;SDS011;14278;50.784;4.630;2023-08-21T02:08:50;1.05;;;0.88;;
26654;SDS011;14278;50.784;4.630;2023-08-21T02:11:16;1.08;;;1.00;;
26654;SDS011;14278;50.784;4.630;2023-08-21T02:13:41;4.95;;;0.75;;
26654;SDS011;14278;50.784;4.630;2023-08-21T02:16:07;1.23;;;0.75;;
26654;SDS011;14278;50.784;4.630;2023-08-21T02:18:33;1.70;;;1.13;;
26654;SDS011;14278;50.784;4.630;2023-08-21T02:21:02;0.98;;;0.80;;
26654;SDS011;14278;50.784;4.630;2023-08-21T02:23:28;1.25;;;1.00;;
26654;SDS011;14278;50.784;4.630;2023-08-21T02:25:54;1.35;;;1.13;;
26654;SDS011;14278;50.784;4.630;2023-08-21T02:28:20;2.00;;;0.93;;
26654;SDS011;14278;50.784;4.630;2023-08-21T02:30:46;0.50;;;0.50;;
26654;SDS011;14278;50.784;4.630;2023-08-21T02:33:12;0.63;;;0.57;;
26654;SDS011;14278;50.784;4.630;2023-08-21T02:35:38;0.47;;;0.47;;
26654;SDS011;14278;50.784;4.630;2023-08-21T02:38:04;2.28;;;1.08;;
26654;SDS011;14278;50.784;4.630;2023-08-21T02:40:29;2.35;;;1.25;;
26654;SDS011;14278;50.784;4.630;2023-08-21T02:42:56;1.20;;;1.10;;
26654;SDS011;14278;50.784;4.630;2023-08-21T02:45:22;1.88;;;1.08;;
26654;SDS011;14278;50.784;4.630;2023-08-21T02:47:48;0.77;;;0.77;;
26654;SDS011;14278;50.784;4.630;2023-08-21T02:50:13;2.90;;;0.75;;
26654;SDS011;14278;50.784;4.630;2023-08-21T02:52:40;0.55;;;0.55;;
26654;SDS011;14278;50.784;4.630;2023-08-21T02:55:06;0.82;;;0.82;;
26654;SDS011;14278;50.784;4.630;2023-08-21T02:57:32;0.68;;;0.68;;
26654;SDS011;14278;50.784;4.630;2023-08-21T02:59:58;1.92;;;0.82;;
26654;SDS011;14278;50.784;4.630;2023-08-21T03:02:23;0.70;;;0.60;;
26654;SDS011;14278;50.784;4.630;2023-08-21T03:07:41;0.65;;;0.65;;
26654;SDS011;14278;50.784;4.630;2023-08-21T03:10:07;4.68;;;1.00;;
26654;SDS011;14278;50.784;4.630;2023-08-21T03:12:33;0.73;;;0.60;;
26654;SDS011;14278;50.784;4.630;2023-08-21T03:14:59;0.73;;;0.73;;
26654;SDS011;14278;50.784;4.630;2023-08-21T03:17:25;1.83;;;0.95;;
26654;SDS011;14278;50.784;4.630;2023-08-21T03:19:51;1.25;;;0.73;;
26654;SDS011;14278;50.784;4.630;2023-08-21T03:22:17;1.05;;;0.93;;
26654;SDS011;14278;50.784;4.630;2023-08-21T03:24:44;1.00;;;0.90;;
26654;SDS011;14278;50.784;4.630;2023-08-21T03:27:10;0.68;;;0.68;;
26654;SDS011;14278;50.784;4.630;2023-08-21T03:29:44;1.70;;;1.27;;
26654;SDS011;14278;50.784;4.630;2023-08-21T03:32:23;3.17;;;0.88;;
26654;SDS011;14278;50.784;4.630;2023-08-21T03:34:49;0.80;;;0.77;;
26654;SDS011;14278;50.784;4.630;2023-08-21T03:37:15;1.15;;;0.90;;
26654;SDS011;14278;50.784;4.630;2023-08-21T03:39:41;1.20;;;1.05;;
26654;SDS011;14278;50.784;4.630;2023-08-21T03:42:06;1.30;;;0.80;;
26654;SDS011;14278;50.784;4.630;2023-08-21T03:44:32;0.95;;;0.77;;
26654;SDS011;14278;50.784;4.630;2023-08-21T03:46:58;1.00;;;0.90;;
26654;SDS011;14278;50.784;4.630;2023-08-21T03:49:24;0.80;;;0.80;;
26654;SDS011;14278;50.784;4.630;2023-08-21T03:51:49;0.75;;;0.75;;
26654;SDS011;14278;50.784;4.630;2023-08-21T03:54:15;0.85;;;0.85;;
26654;SDS011;14278;50.784;4.630;2023-08-21T03:56:41;4.32;;;0.93;;
26654;SDS011;14278;50.784;4.630;2023-08-21T03:59:07;2.83;;;0.93;;
26654;SDS011;14278;50.784;4.630;2023-08-21T04:01:32;0.95;;;0.90;;
26654;SDS011;14278;50.784;4.630;2023-08-21T04:03:58;0.60;;;0.52;;
26654;SDS011;14278;50.784;4.630;2023-08-21T04:06:23;4.40;;;0.70;;
26654;SDS011;14278;50.784;4.630;2023-08-21T04:08:50;2.13;;;1.00;;
26654;SDS011;14278;50.784;4.630;2023-08-21T04:11:15;7.60;;;1.05;;
26654;SDS011;14278;50.784;4.630;2023-08-21T04:13:42;0.90;;;0.90;;
26654;SDS011;14278;50.784;4.630;2023-08-21T04:16:07;1.33;;;1.23;;
26654;SDS011;14278;50.784;4.630;2023-08-21T04:18:33;1.25;;;0.85;;
26654;SDS011;14278;50.784;4.630;2023-08-21T04:21:02;0.60;;;0.60;;
26654;SDS011;14278;50.784;4.630;2023-08-21T04:23:28;0.88;;;0.70;;
26654;SDS011;14278;50.784;4.630;2023-08-21T04:25:53;1.20;;;0.80;;
26654;SDS011;14278;50.784;4.630;2023-08-21T04:28:32;1.98;;;1.30;;
26654;SDS011;14278;50.784;4.630;2023-08-21T04:30:58;2.13;;;0.88;;
26654;SDS011;14278;50.784;4.630;2023-08-21T04:33:28;2.63;;;0.70;;
26654;SDS011;14278;50.784;4.630;2023-08-21T04:35:54;1.02;;;0.90;;
26654;SDS011;14278;50.784;4.630;2023-08-21T04:38:19;1.05;;;1.05;;
26654;SDS011;14278;50.784;4.630;2023-08-21T04:40:45;0.85;;;0.85;;
26654;SDS011;14278;50.784;4.630;2023-08-21T04:43:11;1.00;;;1.00;;
26654;SDS011;14278;50.784;4.630;2023-08-21T04:45:37;0.93;;;0.90;;
26654;SDS011;14278;50.784;4.630;2023-08-21T04:48:04;1.85;;;0.93;;
26654;SDS011;14278;50.784;4.630;2023-08-21T04:50:30;0.60;;;0.60;;
26654;SDS011;14278;50.784;4.630;2023-08-21T04:52:55;2.88;;;1.45;;
26654;SDS011;14278;50.784;4.630;2023-08-21T04:55:21;64.85;;;44.60;;
26654;SDS011;14278;50.784;4.630;2023-08-21T04:57:47;76.90;;;54.33;;
26654;SDS011;14278;50.784;4.630;2023-08-21T05:00:13;36.35;;;24.33;;
26654;SDS011;14278;50.784;4.630;2023-08-21T05:02:40;2.63;;;2.42;;
26654;SDS011;14278;50.784;4.630;2023-08-21T05:05:06;1.63;;;1.37;;
26654;SDS011;14278;50.784;4.630;2023-08-21T05:07:33;1.10;;;0.90;;
26654;SDS011;14278;50.784;4.630;2023-08-21T05:10:00;0.73;;;0.73;;
26654;SDS011;14278;50.784;4.630;2023-08-21T05:12:26;7.43;;;1.40;;
26654;SDS011;14278;50.784;4.630;2023-08-21T05:14:52;2.03;;;1.08;;
26654;SDS011;14278;50.784;4.630;2023-08-21T05:17:19;0.85;;;0.85;;
26654;SDS011;14278;50.784;4.630;2023-08-21T05:19:44;2.30;;;1.30;;
26654;SDS011;14278;50.784;4.630;2023-08-21T05:22:10;1.02;;;1.02;;
26654;SDS011;14278;50.784;4.630;2023-08-21T05:24:36;0.90;;;0.90;;
26654;SDS011;14278;50.784;4.630;2023-08-21T05:27:02;0.82;;;0.80;;
26654;SDS011;14278;50.784;4.630;2023-08-21T05:29:29;11.07;;;1.52;;
26654;SDS011;14278;50.784;4.630;2023-08-21T05:31:55;1.20;;;1.00;;
26654;SDS011;14278;50.784;4.630;2023-08-21T05:34:21;2.45;;;1.05;;
26654;SDS011;14278;50.784;4.630;2023-08-21T05:36:47;1.05;;;0.95;;
26654;SDS011;14278;50.784;4.630;2023-08-21T05:39:12;1.30;;;0.90;;
26654;SDS011;14278;50.784;4.630;2023-08-21T05:41:38;1.08;;;0.98;;
26654;SDS011;14278;50.784;4.630;2023-08-21T05:44:04;0.93;;;0.80;;
26654;SDS011;14278;50.784;4.630;2023-08-21T05:46:30;1.83;;;1.30;;
26654;SDS011;14278;50.784;4.630;2023-08-21T05:48:56;1.10;;;0.93;;
26654;SDS011;14278;50.784;4.630;2023-08-21T05:51:21;1.08;;;1.00;;
26654;SDS011;14278;50.784;4.630;2023-08-21T05:53:47;1.15;;;1.00;;
26654;SDS011;14278;50.784;4.630;2023-08-21T05:56:13;0.77;;;0.77;;
26654;SDS011;14278;50.784;4.630;2023-08-21T05:58:39;1.13;;;1.02;;
26654;SDS011;14278;50.784;4.630;2023-08-21T06:01:04;1.25;;;1.15;;
26654;SDS011;14278;50.784;4.630;2023-08-21T06:03:30;2.33;;;1.02;;
26654;SDS011;14278;50.784;4.630;2023-08-21T06:05:56;1.65;;;1.55;;
26654;SDS011;14278;50.784;4.630;2023-08-21T06:08:21;1.23;;;1.17;;
26654;SDS011;14278;50.784;4.630;2023-08-21T06:10:50;1.20;;;1.02;;
26654;SDS011;14278;50.784;4.630;2023-08-21T06:13:17;1.27;;;1.17;;
26654;SDS011;14278;50.784;4.630;2023-08-21T06:15:45;1.48;;;1.30;;
26654;SDS011;14278;50.784;4.630;2023-08-21T06:18:11;2.17;;;1.05;;
26654;SDS011;14278;50.784;4.630;2023-08-21T06:20:37;1.00;;;0.98;;
26654;SDS011;14278;50.784;4.630;2023-08-21T06:23:03;1.25;;;1.08;;
26654;SDS011;14278;50.784;4.630;2023-08-21T06:25:29;0.95;;;0.95;;
26654;SDS011;14278;50.784;4.630;2023-08-21T06:27:55;0.98;;;0.98;;
26654;SDS011;14278;50.784;4.630;2023-08-21T06:30:21;2.13;;;1.38;;
26654;SDS011;14278;50.784;4.630;2023-08-21T06:32:47;0.93;;;0.93;;
26654;SDS011;14278;50.784;4.630;2023-08-21T06:35:14;6.63;;;1.33;;
26654;SDS011;14278;50.784;4.630;2023-08-21T06:37:41;2.58;;;1.02;;
26654;SDS011;14278;50.784;4.630;2023-08-21T06:40:07;0.70;;;0.70;;
26654;SDS011;14278;50.784;4.630;2023-08-21T06:42:33;1.77;;;1.15;;
26654;SDS011;14278;50.784;4.630;2023-08-21T06:44:58;1.67;;;0.95;;
26654;SDS011;14278;50.784;4.630;2023-08-21T06:47:25;1.85;;;0.85;;
26654;SDS011;14278;50.784;4.630;2023-08-21T06:49:50;2.08;;;1.40;;
26654;SDS011;14278;50.784;4.630;2023-08-21T06:52:17;0.80;;;0.80;;
26654;SDS011;14278;50.784;4.630;2023-08-21T06:54:42;3.33;;;1.33;;
26654;SDS011;14278;50.784;4.630;2023-08-21T06:57:08;0.82;;;0.82;;
26654;SDS011;14278;50.784;4.630;2023-08-21T06:59:34;1.33;;;1.15;;
26654;SDS011;14278;50.784;4.630;2023-08-21T07:02:01;1.65;;;1.20;;
26654;SDS011;14278;50.784;4.630;2023-08-21T07:04:28;0.77;;;0.73;;
26654;SDS011;14278;50.784;4.630;2023-08-21T07:06:53;1.13;;;0.80;;
26654;SDS011;14278;50.784;4.630;2023-08-21T07:09:19;0.70;;;0.70;;
26654;SDS011;14278;50.784;4.630;2023-08-21T07:11:46;2.95;;;1.13;;
26654;SDS011;14278;50.784;4.630;2023-08-21T07:14:11;1.30;;;1.05;;
26654;SDS011;14278;50.784;4.630;2023-08-21T07:16:40;0.55;;;0.52;;
26654;SDS011;14278;50.784;4.630;2023-08-21T07:19:05;1.35;;;1.05;;
26654;SDS011;14278;50.784;4.630;2023-08-21T07:21:31;0.77;;;0.77;;
26654;SDS011;14278;50.784;4.630;2023-08-21T07:23:59;0.80;;;0.80;;
26654;SDS011;14278;50.784;4.630;2023-08-21T07:26:28;0.70;;;0.70;;
26654;SDS011;14278;50.784;4.630;2023-08-21T07:28:53;0.90;;;0.88;;
26654;SDS011;14278;50.784;4.630;2023-08-21T07:31:19;1.10;;;0.90;;
26654;SDS011;14278;50.784;4.630;2023-08-21T07:33:45;1.80;;;0.90;;
26654;SDS011;14278;50.784;4.630;2023-08-21T07:36:11;1.73;;;1.02;;
26654;SDS011;14278;50.784;4.630;2023-08-21T07:38:42;1.50;;;0.85;;
26654;SDS011;14278;50.784;4.630;2023-08-21T07:41:09;1.38;;;0.90;;
26654;SDS011;14278;50.784;4.630;2023-08-21T07:43:37;7.55;;;0.77;;
26654;SDS011;14278;50.784;4.630;2023-08-21T07:46:05;0.63;;;0.63;;
26654;SDS011;14278;50.784;4.630;2023-08-21T07:48:32;3.67;;;1.00;;
26654;SDS011;14278;50.784;4.630;2023-08-21T07:50:58;1.58;;;0.85;;
26654;SDS011;14278;50.784;4.630;2023-08-21T07:53:25;1.63;;;0.80;;
26654;SDS011;14278;50.784;4.630;2023-08-21T07:55:51;3.25;;;1.08;;
26654;SDS011;14278;50.784;4.630;2023-08-21T07:58:17;1.40;;;0.85;;
26654;SDS011;14278;50.784;4.630;2023-08-21T08:00:43;3.15;;;1.02;;
26654;SDS011;14278;50.784;4.630;2023-08-21T08:03:09;1.67;;;0.85;;
26654;SDS011;14278;50.784;4.630;2023-08-21T08:05:36;3.08;;;1.20;;
26654;SDS011;14278;50.784;4.630;2023-08-21T08:08:02;2.83;;;1.10;;
26654;SDS011;14278;50.784;4.630;2023-08-21T08:10:28;2.45;;;1.17;;
26654;SDS011;14278;50.784;4.630;2023-08-21T08:12:54;5.07;;;1.08;;
26654;SDS011;14278;50.784;4.630;2023-08-21T08:15:20;1.08;;;0.77;;
26654;SDS011;14278;50.784;4.630;2023-08-21T08:17:46;2.40;;;0.98;;
26654;SDS011;14278;50.784;4.630;2023-08-21T08:20:12;0.90;;;0.73;;
26654;SDS011;14278;50.784;4.630;2023-08-21T08:22:41;1.27;;;0.90;;
26654;SDS011;14278;50.784;4.630;2023-08-21T08:25:07;1.55;;;0.80;;
26654;SDS011;14278;50.784;4.630;2023-08-21T08:27:33;2.70;;;1.02;;
26654;SDS011;14278;50.784;4.630;2023-08-21T08:29:59;1.95;;;1.00;;
26654;SDS011;14278;50.784;4.630;2023-08-21T08:32:26;1.10;;;0.98;;
26654;SDS011;14278;50.784;4.630;2023-08-21T08:34:52;1.58;;;1.02;;
26654;SDS011;14278;50.784;4.630;2023-08-21T08:37:19;3.50;;;0.82;;
26654;SDS011;14278;50.784;4.630;2023-08-21T08:39:48;1.13;;;1.02;;
26654;SDS011;14278;50.784;4.630;2023-08-21T08:42:14;2.20;;;0.80;;
26654;SDS011;14278;50.784;4.630;2023-08-21T08:44:41;1.27;;;1.10;;
26654;SDS011;14278;50.784;4.630;2023-08-21T08:47:07;1.63;;;0.90;;
26654;SDS011;14278;50.784;4.630;2023-08-21T08:49:39;1.90;;;0.75;;
26654;SDS011;14278;50.784;4.630;2023-08-21T08:52:05;1.27;;;0.98;;
26654;SDS011;14278;50.784;4.630;2023-08-21T08:54:32;1.08;;;0.70;;
26654;SDS011;14278;50.784;4.630;2023-08-21T08:56:58;1.92;;;1.02;;
26654;SDS011;14278;50.784;4.630;2023-08-21T08:59:24;0.80;;;0.70;;
26654;SDS011;14278;50.784;4.630;2023-08-21T09:01:50;0.70;;;0.70;;
26654;SDS011;14278;50.784;4.630;2023-08-21T09:04:16;1.98;;;1.15;;
26654;SDS011;14278;50.784;4.630;2023-08-21T09:06:42;3.95;;;0.88;;
26654;SDS011;14278;50.784;4.630;2023-08-21T09:09:07;6.50;;;0.65;;
26654;SDS011;14278;50.784;4.630;2023-08-21T09:11:35;2.30;;;1.00;;
26654;SDS011;14278;50.784;4.630;2023-08-21T09:14:07;2.17;;;1.05;;
26654;SDS011;14278;50.784;4.630;2023-08-21T09:16:33;1.38;;;0.93;;
26654;SDS011;14278;50.784;4.630;2023-08-21T09:18:59;4.45;;;1.10;;
26654;SDS011;14278;50.784;4.630;2023-08-21T09:21:25;0.73;;;0.63;;
26654;SDS011;14278;50.784;4.630;2023-08-21T09:23:59;0.95;;;0.50;;
26654;SDS011;14278;50.784;4.630;2023-08-21T09:26:29;8.95;;;1.27;;
26654;SDS011;14278;50.784;4.630;2023-08-21T09:28:57;0.90;;;0.82;;
26654;SDS011;14278;50.784;4.630;2023-08-21T09:31:31;0.60;;;0.60;;
26654;SDS011;14278;50.784;4.630;2023-08-21T09:34:01;1.73;;;0.93;;
26654;SDS011;14278;50.784;4.630;2023-08-21T09:36:31;1.42;;;0.95;;
26654;SDS011;14278;50.784;4.630;2023-08-21T09:38:58;1.15;;;0.90;;
26654;SDS011;14278;50.784;4.630;2023-08-21T09:41:25;2.05;;;0.90;;
26654;SDS011;14278;50.784;4.630;2023-08-21T09:43:51;0.73;;;0.68;;
26654;SDS011;14278;50.784;4.630;2023-08-21T09:46:24;3.97;;;1.00;;
26654;SDS011;14278;50.784;4.630;2023-08-21T09:48:51;0.60;;;0.60;;
26654;SDS011;14278;50.784;4.630;2023-08-21T09:51:18;2.25;;;0.98;;
26654;SDS011;14278;50.784;4.630;2023-08-21T09:53:44;0.60;;;0.60;;
26654;SDS011;14278;50.784;4.630;2023-08-21T09:56:11;0.77;;;0.52;;
26654;SDS011;14278;50.784;4.630;2023-08-21T09:58:37;1.17;;;0.70;;
26654;SDS011;14278;50.784;4.630;2023-08-21T10:01:06;0.75;;;0.70;;
26654;SDS011;14278;50.784;4.630;2023-08-21T10:03:39;1.20;;;1.10;;
26654;SDS011;14278;50.784;4.630;2023-08-21T10:06:06;1.13;;;0.90;;
26654;SDS011;14278;50.784;4.630;2023-08-21T10:08:35;0.50;;;0.50;;
26654;SDS011;14278;50.784;4.630;2023-08-21T10:11:07;0.60;;;0.60;;
26654;SDS011;14278;50.784;4.630;2023-08-21T10:13:34;1.55;;;1.00;;
26654;SDS011;14278;50.784;4.630;2023-08-21T10:16:02;0.80;;;0.80;;
26654;SDS011;14278;50.784;4.630;2023-08-21T10:18:32;0.73;;;0.60;;
26654;SDS011;14278;50.784;4.630;2023-08-21T10:21:16;0.68;;;0.68;;
26654;SDS011;14278;50.784;4.630;2023-08-21T10:23:46;0.70;;;0.70;;
26654;SDS011;14278;50.784;4.630;2023-08-21T10:26:13;3.83;;;1.00;;
26654;SDS011;14278;50.784;4.630;2023-08-21T10:28:50;1.17;;;1.02;;
26654;SDS011;14278;50.784;4.630;2023-08-21T10:31:32;0.95;;;0.70;;
26654;SDS011;14278;50.784;4.630;2023-08-21T10:34:18;0.82;;;0.80;;
26654;SDS011;14278;50.784;4.630;2023-08-21T10:39:17;1.25;;;0.60;;
26654;SDS011;14278;50.784;4.630;2023-08-21T10:42:36;0.70;;;0.70;;
26654;SDS011;14278;50.784;4.630;2023-08-21T10:47:20;0.80;;;0.60;;
26654;SDS011;14278;50.784;4.630;2023-08-21T10:52:31;0.77;;;0.65;;
26654;SDS011;14278;50.784;4.630;2023-08-21T10:55:01;0.40;;;0.40;;
26654;SDS011;14278;50.784;4.630;2023-08-21T10:57:30;1.67;;;0.80;;
26654;SDS011;14278;50.784;4.630;2023-08-21T10:59:58;1.95;;;0.75;;
26654;SDS011;14278;50.784;4.630;2023-08-21T11:02:26;1.17;;;0.70;;
26654;SDS011;14278;50.784;4.630;2023-08-21T11:04:54;0.65;;;0.57;;
26654;SDS011;14278;50.784;4.630;2023-08-21T11:07:20;1.38;;;0.88;;
26654;SDS011;14278;50.784;4.630;2023-08-21T11:09:47;0.50;;;0.45;;
26654;SDS011;14278;50.784;4.630;2023-08-21T11:12:15;0.47;;;0.47;;
26654;SDS011;14278;50.784;4.630;2023-08-21T11:14:43;0.70;;;0.60;;
26654;SDS011;14278;50.784;4.630;2023-08-21T11:17:09;0.52;;;0.43;;
26654;SDS011;14278;50.784;4.630;2023-08-21T11:19:36;5.82;;;0.93;;
26654;SDS011;14278;50.784;4.630;2023-08-21T11:22:02;1.13;;;0.60;;
26654;SDS011;14278;50.784;4.630;2023-08-21T11:27:05;3.50;;;0.90;;
26654;SDS011;14278;50.784;4.630;2023-08-21T11:29:37;0.40;;;0.40;;
26654;SDS011;14278;50.784;4.630;2023-08-21T11:32:08;0.50;;;0.50;;
26654;SDS011;14278;50.784;4.630;2023-08-21T11:34:38;0.73;;;0.73;;
26654;SDS011;14278;50.784;4.630;2023-08-21T11:37:05;1.25;;;0.60;;
26654;SDS011;14278;50.784;4.630;2023-08-21T11:42:34;1.23;;;0.98;;
26654;SDS011;14278;50.784;4.630;2023-08-21T11:45:00;0.80;;;0.70;;
26654;SDS011;14278;50.784;4.630;2023-08-21T11:47:33;0.80;;;0.80;;
26654;SDS011;14278;50.784;4.630;2023-08-21T11:50:03;1.70;;;0.77;;
26654;SDS011;14278;50.784;4.630;2023-08-21T11:52:31;1.45;;;0.85;;
26654;SDS011;14278;50.784;4.630;2023-08-21T11:54:57;0.65;;;0.60;;
26654;SDS011;14278;50.784;4.630;2023-08-21T11:57:23;0.95;;;0.70;;
26654;SDS011;14278;50.784;4.630;2023-08-21T11:59:53;2.63;;;1.10;;
26654;SDS011;14278;50.784;4.630;2023-08-21T12:02:23;1.10;;;0.70;;
26654;SDS011;14278;50.784;4.630;2023-08-21T12:05:03;0.50;;;0.50;;
26654;SDS011;14278;50.784;4.630;2023-08-21T12:07:31;0.70;;;0.70;;
26654;SDS011;14278;50.784;4.630;2023-08-21T12:09:57;0.80;;;0.63;;
26654;SDS011;14278;50.784;4.630;2023-08-21T12:12:22;0.85;;;0.65;;
26654;SDS011;14278;50.784;4.630;2023-08-21T12:14:49;8.45;;;0.70;;
26654;SDS011;14278;50.784;4.630;2023-08-21T12:17:15;1.00;;;0.60;;
26654;SDS011;14278;50.784;4.630;2023-08-21T12:19:41;2.85;;;1.02;;
26654;SDS011;14278;50.784;4.630;2023-08-21T12:22:08;1.83;;;0.95;;
26654;SDS011;14278;50.784;4.630;2023-08-21T12:24:34;0.68;;;0.63;;
26654;SDS011;14278;50.784;4.630;2023-08-21T12:27:00;1.35;;;1.00;;
26654;SDS011;14278;50.784;4.630;2023-08-21T12:29:26;0.80;;;0.80;;
26654;SDS011;14278;50.784;4.630;2023-08-21T12:31:52;1.92;;;1.00;;
26654;SDS011;14278;50.784;4.630;2023-08-21T12:34:18;0.63;;;0.63;;
26654;SDS011;14278;50.784;4.630;2023-08-21T12:36:44;2.20;;;1.02;;
26654;SDS011;14278;50.784;4.630;2023-08-21T12:39:09;5.50;;;1.00;;
26654;SDS011;14278;50.784;4.630;2023-08-21T12:41:35;1.48;;;1.00;;
26654;SDS011;14278;50.784;4.630;2023-08-21T12:44:02;1.05;;;0.95;;
26654;SDS011;14278;50.784;4.630;2023-08-21T12:46:28;1.00;;;0.85;;
26654;SDS011;14278;50.784;4.630;2023-08-21T12:48:55;0.63;;;0.63;;
26654;SDS011;14278;50.784;4.630;2023-08-21T12:51:21;1.65;;;1.42;;
26654;SDS011;14278;50.784;4.630;2023-08-21T12:53:47;0.90;;;0.90;;
26654;SDS011;14278;50.784;4.630;2023-08-21T12:56:13;2.10;;;1.17;;
26654;SDS011;14278;50.784;4.630;2023-08-21T12:58:39;0.80;;;0.80;;
26654;SDS011;14278;50.784;4.630;2023-08-21T13:01:05;1.10;;;1.02;;
26654;SDS011;14278;50.784;4.630;2023-08-21T13:03:30;1.70;;;0.95;;
26654;SDS011;14278;50.784;4.630;2023-08-21T13:05:58;0.70;;;0.70;;
26654;SDS011;14278;50.784;4.630;2023-08-21T13:08:24;1.17;;;0.90;;
26654;SDS011;14278;50.784;4.630;2023-08-21T13:10:50;2.85;;;1.27;;
26654;SDS011;14278;50.784;4.630;2023-08-21T13:13:15;2.25;;;1.13;;
26654;SDS011;14278;50.784;4.630;2023-08-21T13:15:41;1.33;;;1.02;;
26654;SDS011;14278;50.784;4.630;2023-08-21T13:18:09;0.70;;;0.70;;
26654;SDS011;14278;50.784;4.630;2023-08-21T13:20:36;0.80;;;0.80;;
26654;SDS011;14278;50.784;4.630;2023-08-21T13:23:02;0.85;;;0.70;;
26654;SDS011;14278;50.784;4.630;2023-08-21T13:25:27;1.08;;;0.95;;
26654;SDS011;14278;50.784;4.630;2023-08-21T13:27:54;0.55;;;0.55;;
26654;SDS011;14278;50.784;4.630;2023-08-21T13:30:20;0.65;;;0.60;;
26654;SDS011;14278;50.784;4.630;2023-08-21T13:32:48;1.50;;;0.90;;
26654;SDS011;14278;50.784;4.630;2023-08-21T13:35:13;1.45;;;0.85;;
26654;SDS011;14278;50.784;4.630;2023-08-21T13:37:39;1.25;;;0.93;;
26654;SDS011;14278;50.784;4.630;2023-08-21T13:40:05;1.25;;;0.65;;
26654;SDS011;14278;50.784;4.630;2023-08-21T13:42:39;0.60;;;0.60;;
26654;SDS011;14278;50.784;4.630;2023-08-21T13:45:09;1.55;;;0.90;;
26654;SDS011;14278;50.784;4.630;2023-08-21T13:47:41;0.70;;;0.70;;
26654;SDS011;14278;50.784;4.630;2023-08-21T13:50:07;0.70;;;0.70;;
26654;SDS011;14278;50.784;4.630;2023-08-21T13:52:34;0.95;;;0.73;;
26654;SDS011;14278;50.784;4.630;2023-08-21T13:55:00;1.33;;;1.05;;
26654;SDS011;14278;50.784;4.630;2023-08-21T13:57:28;2.05;;;0.80;;
26654;SDS011;14278;50.784;4.630;2023-08-21T13:59:54;1.02;;;0.80;;
26654;SDS011;14278;50.784;4.630;2023-08-21T14:02:19;0.90;;;0.90;;
26654;SDS011;14278;50.784;4.630;2023-08-21T14:04:45;3.83;;;1.02;;
26654;SDS011;14278;50.784;4.630;2023-08-21T14:07:11;0.68;;;0.68;;
26654;SDS011;14278;50.784;4.630;2023-08-21T14:09:38;1.58;;;0.85;;
26654;SDS011;14278;50.784;4.630;2023-08-21T14:12:04;0.63;;;0.63;;
26654;SDS011;14278;50.784;4.630;2023-08-21T14:14:31;0.55;;;0.55;;
26654;SDS011;14278;50.784;4.630;2023-08-21T14:16:58;0.65;;;0.65;;
26654;SDS011;14278;50.784;4.630;2023-08-21T14:19:23;1.48;;;0.73;;
26654;SDS011;14278;50.784;4.630;2023-08-21T14:21:50;0.75;;;0.43;;
26654;SDS011;14278;50.784;4.630;2023-08-21T14:24:15;1.63;;;0.88;;
26654;SDS011;14278;50.784;4.630;2023-08-21T14:26:41;2.55;;;0.85;;
26654;SDS011;14278;50.784;4.630;2023-08-21T14:29:07;0.93;;;0.70;;
26654;SDS011;14278;50.784;4.630;2023-08-21T14:31:33;0.82;;;0.68;;
26654;SDS011;14278;50.784;4.630;2023-08-21T14:33:59;1.20;;;0.95;;
26654;SDS011;14278;50.784;4.630;2023-08-21T14:36:25;1.63;;;1.00;;
26654;SDS011;14278;50.784;4.630;2023-08-21T14:38:50;0.98;;;0.90;;
26654;SDS011;14278;50.784;4.630;2023-08-21T14:41:16;1.58;;;1.00;;
26654;SDS011;14278;50.784;4.630;2023-08-21T14:43:43;1.27;;;0.70;;
26654;SDS011;14278;50.784;4.630;2023-08-21T14:46:09;1.50;;;0.90;;
26654;SDS011;14278;50.784;4.630;2023-08-21T14:48:35;1.80;;;0.73;;
26654;SDS011;14278;50.784;4.630;2023-08-21T14:51:01;1.38;;;0.75;;
26654;SDS011;14278;50.784;4.630;2023-08-21T14:53:27;1.10;;;0.88;;
26654;SDS011;14278;50.784;4.630;2023-08-21T14:55:52;2.10;;;1.23;;
26654;SDS011;14278;50.784;4.630;2023-08-21T14:58:18;0.90;;;0.85;;
26654;SDS011;14278;50.784;4.630;2023-08-21T15:00:44;2.95;;;0.85;;
26654;SDS011;14278;50.784;4.630;2023-08-21T15:03:10;0.70;;;0.70;;
26654;SDS011;14278;50.784;4.630;2023-08-21T15:05:35;1.05;;;0.88;;
26654;SDS011;14278;50.784;4.630;2023-08-21T15:08:01;1.70;;;1.02;;
26654;SDS011;14278;50.784;4.630;2023-08-21T15:10:27;1.10;;;1.00;;
26654;SDS011;14278;50.784;4.630;2023-08-21T15:12:53;0.65;;;0.65;;